sensor_id;sensor_type;location;lat;lon;timestamp;temperature;humidity
14741;DHT22;7462;53.530;9.414;2022-07-05T00:00:39;15.80;99.90
14741;DHT22;7462;53.530;9.414;2022-07-05T00:03:07;15.70;99.90
14741;DHT22;7462;53.530;9.414;2022-07-05T00:05:35;15.70;99.90
14741;DHT22;7462;53.530;9.414;2022-07-05T00:08:04;15.70;99.90
14741;DHT22;7462;53.530;9.414;2022-07-05T00:10:34;15.60;99.90
14741;DHT22;7462;53.530;9.414;2022-07-05T00:13:03;15.60;99.90
14741;DHT22;7462;53.530;9.414;2022-07-05T00:15:32;15.60;99.90
14741;DHT22;7462;53.530;9.414;2022-07-05T00:18:02;15.60;99.90
14741;DHT22;7462;53.530;9.414;2022-07-05T00:20:30;15.60;99.90
14741;DHT22;7462;53.530;9.414;2022-07-05T00:22:58;15.50;99.90
14741;DHT22;7462;53.530;9.414;2022-07-05T00:25:26;15.50;99.90
14741;DHT22;7462;53.530;9.414;2022-07-05T00:27:55;15.50;99.90
14741;DHT22;7462;53.530;9.414;2022-07-05T00:30:23;15.50;99.90
14741;DHT22;7462;53.530;9.414;2022-07-05T00:32:51;15.50;99.90
14741;DHT22;7462;53.530;9.414;2022-07-05T00:35:20;15.40;99.90
14741;DHT22;7462;53.530;9.414;2022-07-05T00:37:48;15.40;99.90
14741;DHT22;7462;53.530;9.414;2022-07-05T00:40:17;15.40;99.90
14741;DHT22;7462;53.530;9.414;2022-07-05T00:42:45;15.40;99.90
14741;DHT22;7462;53.530;9.414;2022-07-05T00:45:13;15.40;99.90
14741;DHT22;7462;53.530;9.414;2022-07-05T00:47:41;15.40;99.90
14741;DHT22;7462;53.530;9.414;2022-07-05T00:50:09;15.30;99.90
14741;DHT22;7462;53.530;9.414;2022-07-05T00:52:39;15.30;99.90
14741;DHT22;7462;53.530;9.414;2022-07-05T00:55:09;15.20;99.90
14741;DHT22;7462;53.530;9.414;2022-07-05T00:57:37;15.20;99.90
14741;DHT22;7462;53.530;9.414;2022-07-05T01:00:06;15.20;99.90
14741;DHT22;7462;53.530;9.414;2022-07-05T01:02:35;15.20;99.90
14741;DHT22;7462;53.530;9.414;2022-07-05T01:05:04;15.20;99.90
14741;DHT22;7462;53.530;9.414;2022-07-05T01:07:32;15.20;99.90
14741;DHT22;7462;53.530;9.414;2022-07-05T01:10:01;15.20;99.90
14741;DHT22;7462;53.530;9.414;2022-07-05T01:12:30;15.20;99.90
14741;DHT22;7462;53.530;9.414;2022-07-05T01:14:58;15.20;99.90
14741;DHT22;7462;53.530;9.414;2022-07-05T01:17:27;15.10;99.90
14741;DHT22;7462;53.530;9.414;2022-07-05T01:19:55;15.20;99.90
14741;DHT22;7462;53.530;9.414;2022-07-05T01:22:26;15.10;99.90
14741;DHT22;7462;53.530;9.414;2022-07-05T01:24:56;15.10;99.90
14741;DHT22;7462;53.530;9.414;2022-07-05T01:27:24;15.10;99.90
14741;DHT22;7462;53.530;9.414;2022-07-05T01:29:52;15.10;99.90
14741;DHT22;7462;53.530;9.414;2022-07-05T01:32:20;15.10;99.90
14741;DHT22;7462;53.530;9.414;2022-07-05T01:34:48;15.10;99.90
14741;DHT22;7462;53.530;9.414;2022-07-05T01:37:16;15.00;99.90
14741;DHT22;7462;53.530;9.414;2022-07-05T01:39:45;15.00;99.90
14741;DHT22;7462;53.530;9.414;2022-07-05T01:42:15;15.00;99.90
14741;DHT22;7462;53.530;9.414;2022-07-05T01:44:43;15.00;99.90
14741;DHT22;7462;53.530;9.414;2022-07-05T01:47:13;15.00;99.90
14741;DHT22;7462;53.530;9.414;2022-07-05T01:49:46;14.90;99.90
14741;DHT22;7462;53.530;9.414;2022-07-05T01:52:17;14.90;99.90
14741;DHT22;7462;53.530;9.414;2022-07-05T01:54:47;15.00;99.90
14741;DHT22;7462;53.530;9.414;2022-07-05T01:57:17;15.00;99.90
14741;DHT22;7462;53.530;9.414;2022-07-05T01:59:46;14.90;99.90
14741;DHT22;7462;53.530;9.414;2022-07-05T02:02:14;14.90;99.90
14741;DHT22;7462;53.530;9.414;2022-07-05T02:04:47;14.90;99.90
14741;DHT22;7462;53.530;9.414;2022-07-05T02:07:16;14.90;99.90
14741;DHT22;7462;53.530;9.414;2022-07-05T02:09:44;14.80;99.90
14741;DHT22;7462;53.530;9.414;2022-07-05T02:12:13;14.80;99.90
14741;DHT22;7462;53.530;9.414;2022-07-05T02:14:42;14.80;99.90
14741;DHT22;7462;53.530;9.414;2022-07-05T02:17:15;14.80;99.90
14741;DHT22;7462;53.530;9.414;2022-07-05T02:19:46;14.80;99.90
14741;DHT22;7462;53.530;9.414;2022-07-05T02:22:15;14.80;99.90
14741;DHT22;7462;53.530;9.414;2022-07-05T02:24:43;14.80;99.90
14741;DHT22;7462;53.530;9.414;2022-07-05T02:27:20;14.80;99.90
14741;DHT22;7462;53.530;9.414;2022-07-05T02:29:51;14.80;99.90
14741;DHT22;7462;53.530;9.414;2022-07-05T02:32:27;14.80;99.90
14741;DHT22;7462;53.530;9.414;2022-07-05T02:34:58;14.70;99.90
14741;DHT22;7462;53.530;9.414;2022-07-05T02:37:27;14.70;99.90
14741;DHT22;7462;53.530;9.414;2022-07-05T02:39:56;14.70;99.90
14741;DHT22;7462;53.530;9.414;2022-07-05T02:42:24;14.60;99.90
14741;DHT22;7462;53.530;9.414;2022-07-05T02:44:54;14.60;99.90
14741;DHT22;7462;53.530;9.414;2022-07-05T02:47:23;14.60;99.90
14741;DHT22;7462;53.530;9.414;2022-07-05T02:49:51;14.50;99.90
14741;DHT22;7462;53.530;9.414;2022-07-05T02:52:20;14.50;99.90
14741;DHT22;7462;53.530;9.414;2022-07-05T02:54:48;14.50;99.90
14741;DHT22;7462;53.530;9.414;2022-07-05T02:57:18;14.50;99.90
14741;DHT22;7462;53.530;9.414;2022-07-05T02:59:46;14.50;99.90
14741;DHT22;7462;53.530;9.414;2022-07-05T03:02:16;14.50;99.90
14741;DHT22;7462;53.530;9.414;2022-07-05T03:04:44;14.50;99.90
14741;DHT22;7462;53.530;9.414;2022-07-05T03:07:13;14.50;99.90
14741;DHT22;7462;53.530;9.414;2022-07-05T03:09:41;14.40;99.90
14741;DHT22;7462;53.530;9.414;2022-07-05T03:12:11;14.40;99.90
14741;DHT22;7462;53.530;9.414;2022-07-05T03:14:39;14.40;99.90
14741;DHT22;7462;53.530;9.414;2022-07-05T03:17:08;14.40;99.90
14741;DHT22;7462;53.530;9.414;2022-07-05T03:19:37;14.40;99.90
14741;DHT22;7462;53.530;9.414;2022-07-05T03:22:07;14.40;99.90
14741;DHT22;7462;53.530;9.414;2022-07-05T03:24:37;14.30;99.90
14741;DHT22;7462;53.530;9.414;2022-07-05T03:27:06;14.30;99.90
14741;DHT22;7462;53.530;9.414;2022-07-05T03:29:36;14.30;99.90
14741;DHT22;7462;53.530;9.414;2022-07-05T03:32:05;14.30;99.90
14741;DHT22;7462;53.530;9.414;2022-07-05T03:34:34;14.40;99.90
14741;DHT22;7462;53.530;9.414;2022-07-05T03:37:04;14.40;99.90
14741;DHT22;7462;53.530;9.414;2022-07-05T03:39:33;14.40;99.90
14741;DHT22;7462;53.530;9.414;2022-07-05T03:42:01;14.40;99.90
14741;DHT22;7462;53.530;9.414;2022-07-05T03:44:30;14.40;99.90
14741;DHT22;7462;53.530;9.414;2022-07-05T03:47:02;14.40;99.90
14741;DHT22;7462;53.530;9.414;2022-07-05T03:49:32;14.50;99.90
14741;DHT22;7462;53.530;9.414;2022-07-05T03:52:00;14.50;99.90
14741;DHT22;7462;53.530;9.414;2022-07-05T03:54:30;14.60;99.90
14741;DHT22;7462;53.530;9.414;2022-07-05T03:56:59;14.60;99.90
14741;DHT22;7462;53.530;9.414;2022-07-05T03:59:27;14.70;99.90
14741;DHT22;7462;53.530;9.414;2022-07-05T04:01:56;14.80;99.90
14741;DHT22;7462;53.530;9.414;2022-07-05T04:04:24;14.90;99.90
14741;DHT22;7462;53.530;9.414;2022-07-05T04:06:53;14.90;99.90
14741;DHT22;7462;53.530;9.414;2022-07-05T04:09:21;15.00;99.90
14741;DHT22;7462;53.530;9.414;2022-07-05T04:11:51;15.00;99.90
14741;DHT22;7462;53.530;9.414;2022-07-05T04:14:19;15.10;99.90
14741;DHT22;7462;53.530;9.414;2022-07-05T04:16:48;15.10;99.90
14741;DHT22;7462;53.530;9.414;2022-07-05T04:19:16;15.10;99.90
14741;DHT22;7462;53.530;9.414;2022-07-05T04:21:44;15.20;99.90
14741;DHT22;7462;53.530;9.414;2022-07-05T04:24:12;15.20;99.90
14741;DHT22;7462;53.530;9.414;2022-07-05T04:26:41;15.30;99.90
14741;DHT22;7462;53.530;9.414;2022-07-05T04:29:10;15.40;99.90
14741;DHT22;7462;53.530;9.414;2022-07-05T04:31:39;15.40;99.90
14741;DHT22;7462;53.530;9.414;2022-07-05T04:34:08;15.50;99.90
14741;DHT22;7462;53.530;9.414;2022-07-05T04:36:40;15.60;99.90
14741;DHT22;7462;53.530;9.414;2022-07-05T04:39:09;15.60;99.90
14741;DHT22;7462;53.530;9.414;2022-07-05T04:41:43;15.70;99.90
14741;DHT22;7462;53.530;9.414;2022-07-05T04:44:13;15.80;99.90
14741;DHT22;7462;53.530;9.414;2022-07-05T04:46:42;15.90;99.90
14741;DHT22;7462;53.530;9.414;2022-07-05T04:49:10;16.00;99.90
14741;DHT22;7462;53.530;9.414;2022-07-05T04:51:39;16.20;99.90
14741;DHT22;7462;53.530;9.414;2022-07-05T04:54:13;16.30;99.90
14741;DHT22;7462;53.530;9.414;2022-07-05T04:56:41;16.50;99.90
14741;DHT22;7462;53.530;9.414;2022-07-05T04:59:09;16.60;99.90
14741;DHT22;7462;53.530;9.414;2022-07-05T05:01:38;16.70;99.90
14741;DHT22;7462;53.530;9.414;2022-07-05T05:04:06;16.80;99.90
14741;DHT22;7462;53.530;9.414;2022-07-05T05:06:35;16.90;99.90
14741;DHT22;7462;53.530;9.414;2022-07-05T05:09:03;16.90;99.90
14741;DHT22;7462;53.530;9.414;2022-07-05T05:11:31;17.10;99.90
14741;DHT22;7462;53.530;9.414;2022-07-05T05:13:59;17.20;99.90
14741;DHT22;7462;53.530;9.414;2022-07-05T05:16:27;17.30;99.90
14741;DHT22;7462;53.530;9.414;2022-07-05T05:18:57;17.60;99.90
14741;DHT22;7462;53.530;9.414;2022-07-05T05:21:25;17.80;99.90
14741;DHT22;7462;53.530;9.414;2022-07-05T05:23:53;18.00;99.90
14741;DHT22;7462;53.530;9.414;2022-07-05T05:26:21;18.00;99.90
14741;DHT22;7462;53.530;9.414;2022-07-05T05:28:50;18.30;99.90
14741;DHT22;7462;53.530;9.414;2022-07-05T05:31:18;18.60;99.90
14741;DHT22;7462;53.530;9.414;2022-07-05T05:33:46;18.60;99.90
14741;DHT22;7462;53.530;9.414;2022-07-05T05:36:16;18.40;99.90
14741;DHT22;7462;53.530;9.414;2022-07-05T05:38:44;18.20;99.90
14741;DHT22;7462;53.530;9.414;2022-07-05T05:41:17;18.10;99.90
14741;DHT22;7462;53.530;9.414;2022-07-05T05:43:45;17.90;99.90
14741;DHT22;7462;53.530;9.414;2022-07-05T05:46:13;17.80;99.90
14741;DHT22;7462;53.530;9.414;2022-07-05T05:48:42;17.80;99.90
14741;DHT22;7462;53.530;9.414;2022-07-05T05:51:10;17.80;99.90
14741;DHT22;7462;53.530;9.414;2022-07-05T05:53:40;17.80;99.90
14741;DHT22;7462;53.530;9.414;2022-07-05T05:56:08;17.80;99.90
14741;DHT22;7462;53.530;9.414;2022-07-05T05:58:36;17.80;99.90
14741;DHT22;7462;53.530;9.414;2022-07-05T06:01:09;17.90;99.90
14741;DHT22;7462;53.530;9.414;2022-07-05T06:03:37;18.00;99.90
14741;DHT22;7462;53.530;9.414;2022-07-05T06:06:06;18.20;99.90
14741;DHT22;7462;53.530;9.414;2022-07-05T06:08:34;18.40;99.90
14741;DHT22;7462;53.530;9.414;2022-07-05T06:11:04;18.50;99.90
14741;DHT22;7462;53.530;9.414;2022-07-05T06:13:32;18.60;99.90
14741;DHT22;7462;53.530;9.414;2022-07-05T06:16:00;18.50;99.90
14741;DHT22;7462;53.530;9.414;2022-07-05T06:18:28;18.50;99.90
14741;DHT22;7462;53.530;9.414;2022-07-05T06:20:56;18.50;99.90
14741;DHT22;7462;53.530;9.414;2022-07-05T06:23:24;18.40;99.90
14741;DHT22;7462;53.530;9.414;2022-07-05T06:25:52;18.30;99.90
14741;DHT22;7462;53.530;9.414;2022-07-05T06:28:22;18.20;99.90
14741;DHT22;7462;53.530;9.414;2022-07-05T06:30:50;18.20;99.90
14741;DHT22;7462;53.530;9.414;2022-07-05T06:33:19;18.40;99.90
14741;DHT22;7462;53.530;9.414;2022-07-05T06:35:47;18.50;99.90
14741;DHT22;7462;53.530;9.414;2022-07-05T06:38:15;18.70;99.90
14741;DHT22;7462;53.530;9.414;2022-07-05T06:40:44;19.00;99.90
14741;DHT22;7462;53.530;9.414;2022-07-05T06:43:13;19.50;99.90
14741;DHT22;7462;53.530;9.414;2022-07-05T06:45:57;20.00;99.90
14741;DHT22;7462;53.530;9.414;2022-07-05T06:48:27;20.40;99.90
14741;DHT22;7462;53.530;9.414;2022-07-05T06:50:56;20.80;99.90
14741;DHT22;7462;53.530;9.414;2022-07-05T06:53:24;21.10;99.90
14741;DHT22;7462;53.530;9.414;2022-07-05T06:55:52;21.50;99.90
14741;DHT22;7462;53.530;9.414;2022-07-05T06:58:22;21.60;99.90
14741;DHT22;7462;53.530;9.414;2022-07-05T07:00:51;22.00;99.90
14741;DHT22;7462;53.530;9.414;2022-07-05T07:03:40;22.10;99.90
14741;DHT22;7462;53.530;9.414;2022-07-05T07:06:29;22.30;99.90
14741;DHT22;7462;53.530;9.414;2022-07-05T07:09:00;22.50;99.90
14741;DHT22;7462;53.530;9.414;2022-07-05T07:11:46;22.70;99.90
14741;DHT22;7462;53.530;9.414;2022-07-05T07:14:16;22.90;99.90
14741;DHT22;7462;53.530;9.414;2022-07-05T07:16:44;23.10;99.90
14741;DHT22;7462;53.530;9.414;2022-07-05T07:19:14;23.20;99.90
14741;DHT22;7462;53.530;9.414;2022-07-05T07:21:42;23.00;99.90
14741;DHT22;7462;53.530;9.414;2022-07-05T07:24:11;23.10;99.90
14741;DHT22;7462;53.530;9.414;2022-07-05T07:26:39;23.10;99.90
14741;DHT22;7462;53.530;9.414;2022-07-05T07:29:24;23.10;99.90
14741;DHT22;7462;53.530;9.414;2022-07-05T07:31:53;23.20;99.90
14741;DHT22;7462;53.530;9.414;2022-07-05T07:34:22;23.40;99.90
14741;DHT22;7462;53.530;9.414;2022-07-05T07:36:50;23.50;99.90
14741;DHT22;7462;53.530;9.414;2022-07-05T07:39:19;23.80;99.90
14741;DHT22;7462;53.530;9.414;2022-07-05T07:41:49;24.00;99.90
14741;DHT22;7462;53.530;9.414;2022-07-05T07:44:17;24.10;99.90
14741;DHT22;7462;53.530;9.414;2022-07-05T07:46:46;24.10;99.90
14741;DHT22;7462;53.530;9.414;2022-07-05T07:49:14;24.10;99.90
14741;DHT22;7462;53.530;9.414;2022-07-05T07:51:44;23.90;99.90
14741;DHT22;7462;53.530;9.414;2022-07-05T07:54:12;24.50;99.90
14741;DHT22;7462;53.530;9.414;2022-07-05T07:56:41;24.80;99.90
14741;DHT22;7462;53.530;9.414;2022-07-05T07:59:09;24.40;99.90
14741;DHT22;7462;53.530;9.414;2022-07-05T08:01:38;24.20;99.90
14741;DHT22;7462;53.530;9.414;2022-07-05T08:04:12;24.20;99.90
14741;DHT22;7462;53.530;9.414;2022-07-05T08:06:44;24.20;99.90
14741;DHT22;7462;53.530;9.414;2022-07-05T08:09:12;24.50;99.90
14741;DHT22;7462;53.530;9.414;2022-07-05T08:11:44;24.60;99.90
14741;DHT22;7462;53.530;9.414;2022-07-05T08:14:13;24.40;99.90
14741;DHT22;7462;53.530;9.414;2022-07-05T08:16:41;24.00;99.90
14741;DHT22;7462;53.530;9.414;2022-07-05T08:19:17;23.60;99.90
14741;DHT22;7462;53.530;9.414;2022-07-05T08:22:05;22.90;99.90
14741;DHT22;7462;53.530;9.414;2022-07-05T08:24:36;22.30;99.90
14741;DHT22;7462;53.530;9.414;2022-07-05T08:27:04;21.90;99.90
14741;DHT22;7462;53.530;9.414;2022-07-05T08:29:33;21.60;99.90
14741;DHT22;7462;53.530;9.414;2022-07-05T08:32:01;21.40;99.90
14741;DHT22;7462;53.530;9.414;2022-07-05T08:34:30;21.40;99.90
14741;DHT22;7462;53.530;9.414;2022-07-05T08:36:58;21.50;99.90
14741;DHT22;7462;53.530;9.414;2022-07-05T08:39:28;21.70;99.90
14741;DHT22;7462;53.530;9.414;2022-07-05T08:41:57;21.80;99.90
14741;DHT22;7462;53.530;9.414;2022-07-05T08:44:28;21.90;99.90
14741;DHT22;7462;53.530;9.414;2022-07-05T08:46:57;22.00;99.90
14741;DHT22;7462;53.530;9.414;2022-07-05T08:49:27;21.90;99.90
14741;DHT22;7462;53.530;9.414;2022-07-05T08:51:56;22.10;99.90
14741;DHT22;7462;53.530;9.414;2022-07-05T08:54:27;22.10;99.90
14741;DHT22;7462;53.530;9.414;2022-07-05T08:56:56;22.20;99.90
14741;DHT22;7462;53.530;9.414;2022-07-05T08:59:41;22.20;99.90
14741;DHT22;7462;53.530;9.414;2022-07-05T09:02:11;22.10;99.90
14741;DHT22;7462;53.530;9.414;2022-07-05T09:04:43;22.20;99.90
14741;DHT22;7462;53.530;9.414;2022-07-05T09:07:16;22.40;99.90
14741;DHT22;7462;53.530;9.414;2022-07-05T09:09:48;23.10;99.90
14741;DHT22;7462;53.530;9.414;2022-07-05T09:12:18;23.90;99.90
14741;DHT22;7462;53.530;9.414;2022-07-05T09:14:52;24.40;99.90
14741;DHT22;7462;53.530;9.414;2022-07-05T09:17:21;24.90;99.90
14741;DHT22;7462;53.530;9.414;2022-07-05T09:20:05;25.50;99.90
14741;DHT22;7462;53.530;9.414;2022-07-05T09:22:46;25.40;99.90
14741;DHT22;7462;53.530;9.414;2022-07-05T09:25:19;25.60;99.90
14741;DHT22;7462;53.530;9.414;2022-07-05T09:27:52;25.40;99.90
14741;DHT22;7462;53.530;9.414;2022-07-05T09:30:39;25.00;99.90
14741;DHT22;7462;53.530;9.414;2022-07-05T09:33:09;25.00;99.90
14741;DHT22;7462;53.530;9.414;2022-07-05T09:35:38;25.50;99.90
14741;DHT22;7462;53.530;9.414;2022-07-05T09:38:17;26.40;99.90
14741;DHT22;7462;53.530;9.414;2022-07-05T09:40:48;26.80;99.90
14741;DHT22;7462;53.530;9.414;2022-07-05T09:43:17;26.30;99.40
14741;DHT22;7462;53.530;9.414;2022-07-05T09:45:56;25.70;99.90
14741;DHT22;7462;53.530;9.414;2022-07-05T09:48:25;25.10;99.90
14741;DHT22;7462;53.530;9.414;2022-07-05T09:51:07;25.30;99.90
14741;DHT22;7462;53.530;9.414;2022-07-05T09:53:57;26.10;99.90
14741;DHT22;7462;53.530;9.414;2022-07-05T09:56:29;26.60;98.60
14741;DHT22;7462;53.530;9.414;2022-07-05T09:59:18;27.20;97.50
14741;DHT22;7462;53.530;9.414;2022-07-05T10:01:49;26.90;98.10
14741;DHT22;7462;53.530;9.414;2022-07-05T10:04:17;26.50;98.10
14741;DHT22;7462;53.530;9.414;2022-07-05T10:06:46;26.50;97.40
14741;DHT22;7462;53.530;9.414;2022-07-05T10:09:15;27.00;97.30
14741;DHT22;7462;53.530;9.414;2022-07-05T10:11:45;27.50;95.30
14741;DHT22;7462;53.530;9.414;2022-07-05T10:14:19;27.50;95.50
14741;DHT22;7462;53.530;9.414;2022-07-05T10:16:56;27.10;95.60
14741;DHT22;7462;53.530;9.414;2022-07-05T10:19:29;26.50;95.80
14741;DHT22;7462;53.530;9.414;2022-07-05T10:22:01;25.80;97.40
14741;DHT22;7462;53.530;9.414;2022-07-05T10:24:47;25.00;98.20
14741;DHT22;7462;53.530;9.414;2022-07-05T10:27:18;24.90;99.10
14741;DHT22;7462;53.530;9.414;2022-07-05T10:29:49;24.90;99.00
14741;DHT22;7462;53.530;9.414;2022-07-05T10:32:19;25.00;98.80
14741;DHT22;7462;53.530;9.414;2022-07-05T10:34:47;25.00;99.20
14741;DHT22;7462;53.530;9.414;2022-07-05T10:37:22;24.80;99.30
14741;DHT22;7462;53.530;9.414;2022-07-05T10:39:50;24.60;99.60
14741;DHT22;7462;53.530;9.414;2022-07-05T10:42:20;24.20;99.90
14741;DHT22;7462;53.530;9.414;2022-07-05T10:44:49;24.00;99.90
14741;DHT22;7462;53.530;9.414;2022-07-05T10:47:17;23.90;99.90
14741;DHT22;7462;53.530;9.414;2022-07-05T10:50:00;24.10;99.90
14741;DHT22;7462;53.530;9.414;2022-07-05T10:52:29;24.60;99.90
14741;DHT22;7462;53.530;9.414;2022-07-05T10:55:19;25.20;99.90
14741;DHT22;7462;53.530;9.414;2022-07-05T10:58:32;25.90;99.90
14741;DHT22;7462;53.530;9.414;2022-07-05T11:01:31;27.00;99.00
14741;DHT22;7462;53.530;9.414;2022-07-05T11:04:33;27.60;97.70
14741;DHT22;7462;53.530;9.414;2022-07-05T11:07:03;28.40;96.60
14741;DHT22;7462;53.530;9.414;2022-07-05T11:09:31;28.20;96.20
14741;DHT22;7462;53.530;9.414;2022-07-05T11:12:04;27.70;95.90
14741;DHT22;7462;53.530;9.414;2022-07-05T11:15:04;27.00;94.60
14741;DHT22;7462;53.530;9.414;2022-07-05T11:17:34;26.60;96.40
14741;DHT22;7462;53.530;9.414;2022-07-05T11:20:29;26.50;96.90
14741;DHT22;7462;53.530;9.414;2022-07-05T11:25:48;27.20;96.00
14741;DHT22;7462;53.530;9.414;2022-07-05T11:28:19;26.50;96.10
14741;DHT22;7462;53.530;9.414;2022-07-05T11:30:57;26.10;97.70
14741;DHT22;7462;53.530;9.414;2022-07-05T11:33:34;25.60;97.90
14741;DHT22;7462;53.530;9.414;2022-07-05T11:36:03;26.10;98.30
14741;DHT22;7462;53.530;9.414;2022-07-05T11:38:33;26.40;97.80
14741;DHT22;7462;53.530;9.414;2022-07-05T11:41:21;26.80;97.00
14741;DHT22;7462;53.530;9.414;2022-07-05T11:43:58;26.70;97.00
14741;DHT22;7462;53.530;9.414;2022-07-05T11:46:28;26.40;97.10
14741;DHT22;7462;53.530;9.414;2022-07-05T11:49:22;25.90;97.10
14741;DHT22;7462;53.530;9.414;2022-07-05T11:51:55;25.40;97.50
14741;DHT22;7462;53.530;9.414;2022-07-05T11:54:24;25.00;98.50
14741;DHT22;7462;53.530;9.414;2022-07-05T11:56:52;25.10;98.40
14741;DHT22;7462;53.530;9.414;2022-07-05T11:59:22;24.80;98.60
14741;DHT22;7462;53.530;9.414;2022-07-05T12:01:53;24.80;99.10
14741;DHT22;7462;53.530;9.414;2022-07-05T12:04:23;25.00;99.50
14741;DHT22;7462;53.530;9.414;2022-07-05T12:06:51;25.30;99.70
14741;DHT22;7462;53.530;9.414;2022-07-05T12:09:24;25.40;99.30
14741;DHT22;7462;53.530;9.414;2022-07-05T12:11:53;25.20;98.90
14741;DHT22;7462;53.530;9.414;2022-07-05T12:14:47;25.00;99.60
14741;DHT22;7462;53.530;9.414;2022-07-05T12:17:18;25.10;99.20
14741;DHT22;7462;53.530;9.414;2022-07-05T12:19:53;25.40;99.90
14741;DHT22;7462;53.530;9.414;2022-07-05T12:22:29;25.40;98.50
14741;DHT22;7462;53.530;9.414;2022-07-05T12:24:58;25.30;98.50
14741;DHT22;7462;53.530;9.414;2022-07-05T12:27:28;25.00;98.00
14741;DHT22;7462;53.530;9.414;2022-07-05T12:29:57;24.70;99.10
14741;DHT22;7462;53.530;9.414;2022-07-05T12:32:26;24.80;99.10
14741;DHT22;7462;53.530;9.414;2022-07-05T12:34:55;24.70;99.00
14741;DHT22;7462;53.530;9.414;2022-07-05T12:37:31;24.60;98.50
14741;DHT22;7462;53.530;9.414;2022-07-05T12:40:06;24.40;99.10
14741;DHT22;7462;53.530;9.414;2022-07-05T12:42:35;24.00;99.70
14741;DHT22;7462;53.530;9.414;2022-07-05T12:45:11;23.60;99.90
14741;DHT22;7462;53.530;9.414;2022-07-05T12:47:51;23.30;99.90
14741;DHT22;7462;53.530;9.414;2022-07-05T12:50:21;23.00;99.90
14741;DHT22;7462;53.530;9.414;2022-07-05T12:52:59;22.70;99.90
14741;DHT22;7462;53.530;9.414;2022-07-05T12:55:34;22.30;99.90
14741;DHT22;7462;53.530;9.414;2022-07-05T12:58:20;22.00;99.90
14741;DHT22;7462;53.530;9.414;2022-07-05T13:00:48;21.70;99.90
14741;DHT22;7462;53.530;9.414;2022-07-05T13:03:18;21.70;99.90
14741;DHT22;7462;53.530;9.414;2022-07-05T13:06:00;21.90;99.90
14741;DHT22;7462;53.530;9.414;2022-07-05T13:08:29;22.40;99.90
14741;DHT22;7462;53.530;9.414;2022-07-05T13:10:57;22.70;99.90
14741;DHT22;7462;53.530;9.414;2022-07-05T13:13:25;23.10;99.90
14741;DHT22;7462;53.530;9.414;2022-07-05T13:15:54;23.20;99.90
14741;DHT22;7462;53.530;9.414;2022-07-05T13:18:25;23.10;99.90
14741;DHT22;7462;53.530;9.414;2022-07-05T13:20:54;23.20;99.90
14741;DHT22;7462;53.530;9.414;2022-07-05T13:23:22;22.60;99.90
14741;DHT22;7462;53.530;9.414;2022-07-05T13:25:51;22.40;99.90
14741;DHT22;7462;53.530;9.414;2022-07-05T13:28:19;22.20;99.90
14741;DHT22;7462;53.530;9.414;2022-07-05T13:30:47;21.80;99.90
14741;DHT22;7462;53.530;9.414;2022-07-05T13:33:15;21.70;99.90
14741;DHT22;7462;53.530;9.414;2022-07-05T13:35:44;21.50;99.90
14741;DHT22;7462;53.530;9.414;2022-07-05T13:38:13;21.40;99.90
14741;DHT22;7462;53.530;9.414;2022-07-05T13:40:41;21.30;99.90
14741;DHT22;7462;53.530;9.414;2022-07-05T13:43:09;21.20;99.90
14741;DHT22;7462;53.530;9.414;2022-07-05T13:45:37;21.70;99.90
14741;DHT22;7462;53.530;9.414;2022-07-05T13:48:06;22.10;99.90
14741;DHT22;7462;53.530;9.414;2022-07-05T13:50:35;22.30;99.90
14741;DHT22;7462;53.530;9.414;2022-07-05T13:53:05;22.40;99.90
14741;DHT22;7462;53.530;9.414;2022-07-05T13:55:33;22.60;99.90
14741;DHT22;7462;53.530;9.414;2022-07-05T13:58:02;22.40;99.90
14741;DHT22;7462;53.530;9.414;2022-07-05T14:00:30;22.50;99.90
14741;DHT22;7462;53.530;9.414;2022-07-05T14:02:58;22.30;99.90
14741;DHT22;7462;53.530;9.414;2022-07-05T14:05:31;22.20;99.90
14741;DHT22;7462;53.530;9.414;2022-07-05T14:08:00;22.30;99.90
14741;DHT22;7462;53.530;9.414;2022-07-05T14:10:30;22.20;99.90
14741;DHT22;7462;53.530;9.414;2022-07-05T14:12:58;22.40;99.90
14741;DHT22;7462;53.530;9.414;2022-07-05T14:15:26;22.50;99.90
14741;DHT22;7462;53.530;9.414;2022-07-05T14:17:54;22.50;99.90
14741;DHT22;7462;53.530;9.414;2022-07-05T14:20:22;22.40;99.90
14741;DHT22;7462;53.530;9.414;2022-07-05T14:22:52;22.10;99.90
14741;DHT22;7462;53.530;9.414;2022-07-05T14:25:20;21.80;99.90
14741;DHT22;7462;53.530;9.414;2022-07-05T14:27:49;21.70;99.90
14741;DHT22;7462;53.530;9.414;2022-07-05T14:30:17;21.60;99.90
14741;DHT22;7462;53.530;9.414;2022-07-05T14:32:45;21.50;99.90
14741;DHT22;7462;53.530;9.414;2022-07-05T14:35:15;21.50;99.90
14741;DHT22;7462;53.530;9.414;2022-07-05T14:37:43;21.50;99.90
14741;DHT22;7462;53.530;9.414;2022-07-05T14:40:11;21.60;99.90
14741;DHT22;7462;53.530;9.414;2022-07-05T14:42:40;21.70;99.90
14741;DHT22;7462;53.530;9.414;2022-07-05T14:45:10;21.70;99.90
14741;DHT22;7462;53.530;9.414;2022-07-05T14:47:38;21.60;99.90
14741;DHT22;7462;53.530;9.414;2022-07-05T14:50:06;21.50;99.90
14741;DHT22;7462;53.530;9.414;2022-07-05T14:52:34;21.30;99.90
14741;DHT22;7462;53.530;9.414;2022-07-05T14:55:03;21.30;99.90
14741;DHT22;7462;53.530;9.414;2022-07-05T14:57:31;21.30;99.90
14741;DHT22;7462;53.530;9.414;2022-07-05T14:59:59;21.40;99.90
14741;DHT22;7462;53.530;9.414;2022-07-05T15:02:31;21.30;99.90
14741;DHT22;7462;53.530;9.414;2022-07-05T15:04:59;20.90;99.90
14741;DHT22;7462;53.530;9.414;2022-07-05T15:07:27;20.80;99.90
14741;DHT22;7462;53.530;9.414;2022-07-05T15:09:56;20.70;99.90
14741;DHT22;7462;53.530;9.414;2022-07-05T15:12:24;20.80;99.90
14741;DHT22;7462;53.530;9.414;2022-07-05T15:14:52;20.70;99.90
14741;DHT22;7462;53.530;9.414;2022-07-05T15:17:25;20.60;99.90
14741;DHT22;7462;53.530;9.414;2022-07-05T15:19:55;20.70;99.90
14741;DHT22;7462;53.530;9.414;2022-07-05T15:22:23;20.70;99.90
14741;DHT22;7462;53.530;9.414;2022-07-05T15:24:52;20.80;99.90
14741;DHT22;7462;53.530;9.414;2022-07-05T15:27:21;20.80;99.90
14741;DHT22;7462;53.530;9.414;2022-07-05T15:29:49;20.90;99.90
14741;DHT22;7462;53.530;9.414;2022-07-05T15:32:17;20.80;99.90
14741;DHT22;7462;53.530;9.414;2022-07-05T15:34:45;20.80;99.90
14741;DHT22;7462;53.530;9.414;2022-07-05T15:37:15;20.70;99.90
14741;DHT22;7462;53.530;9.414;2022-07-05T15:39:43;20.80;99.90
14741;DHT22;7462;53.530;9.414;2022-07-05T15:42:11;20.90;99.90
14741;DHT22;7462;53.530;9.414;2022-07-05T15:44:42;20.80;99.90
14741;DHT22;7462;53.530;9.414;2022-07-05T15:47:21;20.80;99.90
14741;DHT22;7462;53.530;9.414;2022-07-05T15:49:49;20.80;99.90
14741;DHT22;7462;53.530;9.414;2022-07-05T15:52:18;20.70;99.90
14741;DHT22;7462;53.530;9.414;2022-07-05T15:54:47;20.80;99.90
14741;DHT22;7462;53.530;9.414;2022-07-05T15:57:15;20.90;99.90
14741;DHT22;7462;53.530;9.414;2022-07-05T15:59:43;21.00;99.90
14741;DHT22;7462;53.530;9.414;2022-07-05T16:02:12;21.00;99.90
14741;DHT22;7462;53.530;9.414;2022-07-05T16:04:40;21.20;99.90
14741;DHT22;7462;53.530;9.414;2022-07-05T16:07:08;21.30;99.90
14741;DHT22;7462;53.530;9.414;2022-07-05T16:09:38;21.20;99.90